createdAt,value
2023-01-13T08:09:45.327Z,33.91
2023-01-13T08:14:50.157Z,33.67
2023-01-13T08:19:53.226Z,33.67
2023-01-13T08:24:57.462Z,33.46
2023-01-13T08:30:00.313Z,33.03
2023-01-13T08:35:03.179Z,33.54
2023-01-13T08:40:09.347Z,32.99
2023-01-13T08:45:12.558Z,33.52
2023-01-13T08:50:15.672Z,33.04
2023-01-13T08:55:19.926Z,32.53
2023-01-13T09:00:23.165Z,33.04
2023-01-13T09:05:26.158Z,33.01
2023-01-13T09:10:30.395Z,32.64
2023-01-13T09:15:33.295Z,32.80
2023-01-13T09:20:36.183Z,31.87
2023-01-13T09:25:40.761Z,32.10
2023-01-13T09:30:43.666Z,32.24
2023-01-13T09:35:47.016Z,32.17
2023-01-13T09:40:51.434Z,32.02
2023-01-13T09:45:57.705Z,32.17
2023-01-13T09:51:04.662Z,31.68
2023-01-13T09:56:10.506Z,31.75
2023-01-13T10:01:20.964Z,32.02
2023-01-13T10:06:29.367Z,31.83
2023-01-13T10:11:54.631Z,31.67
2023-01-13T10:17:05.177Z,31.67
2023-01-13T10:22:26.408Z,31.91
2023-01-13T10:27:34.473Z,31.97
2023-01-13T10:32:37.337Z,31.68
2023-01-13T10:37:40.129Z,32.03
2023-01-13T10:42:44.411Z,31.91
2023-01-13T10:48:05.627Z,31.79
2023-01-13T10:53:18.719Z,31.52
2023-01-13T10:58:22.892Z,32.16
2023-01-13T11:03:26.087Z,32.06
2023-01-13T11:08:30.557Z,31.65
2023-01-13T11:13:37.153Z,31.84
2023-01-13T11:18:51.551Z,31.81
2023-01-13T11:24:03.366Z,31.47
2023-01-13T11:29:13.769Z,32.04
2023-01-13T11:34:25.920Z,31.42
2023-01-13T11:39:36.037Z,31.83
2023-01-13T11:44:42.756Z,31.64
2023-01-13T11:49:48.542Z,31.95
2023-01-13T11:55:04.223Z,31.85
2023-01-13T12:00:29.903Z,32.12
2023-01-13T12:05:37.991Z,32.32
2023-01-13T12:10:58.968Z,32.34
2023-01-13T12:16:11.024Z,32.56
2023-01-13T12:21:20.908Z,32.55
2023-01-13T12:26:24.330Z,32.62
2023-01-13T12:31:29.097Z,32.65
2023-01-13T12:36:38.598Z,32.69
2023-01-13T12:41:58.674Z,32.78
2023-01-13T12:47:02.880Z,32.64
2023-01-13T12:52:23.607Z,33.22
2023-01-13T12:57:27.896Z,33.61
2023-01-13T13:02:34.783Z,33.66
2023-01-13T13:07:41.742Z,33.66
2023-01-13T13:13:11.491Z,35.31
2023-01-13T13:18:29.739Z,34.36
2023-01-13T13:24:03.909Z,34.03
2023-01-13T13:29:16.647Z,34.49
2023-01-13T13:34:27.975Z,34.49
2023-01-13T13:39:49.628Z,34.03
2023-01-13T13:45:10.191Z,33.79
2023-01-13T13:50:16.465Z,33.55
2023-01-13T13:55:21.381Z,33.86
2023-01-13T14:00:26.772Z,33.74
2023-01-13T14:05:32.032Z,33.94
2023-01-13T14:10:44.845Z,33.21
2023-01-13T14:15:48.445Z,32.72
2023-01-13T14:20:59.253Z,32.79
2023-01-13T14:26:04.270Z,32.33
2023-01-13T14:31:09.001Z,32.56
2023-01-13T14:36:16.650Z,33.12
2023-01-13T14:41:23.016Z,32.85
2023-01-13T14:46:26.359Z,32.95
2023-01-13T14:51:31.377Z,32.93
2023-01-13T14:56:47.300Z,33.52
2023-01-13T15:01:50.223Z,33.90
2023-01-13T15:06:56.980Z,32.38
2023-01-13T15:12:00.595Z,32.69
2023-01-13T15:17:03.621Z,32.38
2023-01-13T15:22:07.836Z,33.02
2023-01-13T15:27:19.176Z,32.83
2023-01-13T15:32:22.892Z,33.09
2023-01-13T15:37:27.087Z,32.00
2023-01-13T15:42:47.387Z,32.73
2023-01-13T15:47:50.193Z,32.58
2023-01-13T15:52:54.484Z,32.60
2023-01-13T15:57:57.460Z,32.57
2023-01-13T16:03:00.685Z,32.54
2023-01-13T16:08:08.027Z,32.72
2023-01-13T16:13:11.492Z,32.63
2023-01-13T16:18:18.338Z,32.91
2023-01-13T16:23:23.423Z,32.92
2023-01-13T16:28:28.203Z,32.69
2023-01-13T16:33:31.044Z,32.67
2023-01-13T16:38:36.785Z,32.77
2023-01-13T16:43:39.586Z,32.96
2023-01-13T16:48:42.393Z,33.07
2023-01-13T16:53:46.637Z,33.24
2023-01-13T16:58:49.624Z,33.24
2023-01-13T17:03:52.966Z,33.29
2023-01-13T17:09:01.370Z,33.36
2023-01-13T17:14:18.265Z,33.37
2023-01-13T17:19:22.336Z,33.44
2023-01-13T17:24:28.767Z,33.31
2023-01-13T17:29:32.812Z,33.36
2023-01-13T17:34:35.627Z,33.12
2023-01-13T17:39:39.803Z,33.26
2023-01-13T17:44:43.050Z,33.17
2023-01-13T17:49:46.073Z,33.02
2023-01-13T17:54:50.269Z,33.37
2023-01-13T17:59:54.341Z,33.23
2023-01-13T18:04:57.127Z,33.26
2023-01-13T18:10:01.301Z,33.46
2023-01-13T18:15:04.291Z,33.37
2023-01-13T18:20:24.745Z,33.37
2023-01-13T18:25:46.598Z,33.24
2023-01-13T18:30:49.443Z,33.20
2023-01-13T18:35:52.428Z,33.18
2023-01-13T18:40:56.556Z,33.16
2023-01-13T18:46:00.847Z,33.07
2023-01-13T18:51:03.930Z,33.09
2023-01-13T18:56:12.065Z,32.93
2023-01-13T19:01:15.092Z,33.01
2023-01-13T19:06:19.028Z,32.92
2023-01-13T19:11:24.163Z,32.81
2023-01-13T19:16:27.004Z,32.94
2023-01-13T19:21:29.894Z,32.96
2023-01-13T19:26:34.107Z,32.95
2023-01-13T19:31:36.919Z,33.13
2023-01-13T19:36:39.970Z,32.98
2023-01-13T19:42:01.514Z,33.10
2023-01-13T19:47:04.662Z,33.00
2023-01-13T19:52:07.519Z,32.81
2023-01-13T19:57:11.740Z,32.89
2023-01-13T20:02:17.160Z,32.88
2023-01-13T20:07:20.038Z,32.79
2023-01-13T20:12:24.506Z,33.21
2023-01-13T20:17:29.064Z,32.68
2023-01-13T20:22:32.504Z,32.77
2023-01-13T20:27:36.951Z,32.79
2023-01-13T20:32:39.832Z,32.71
2023-01-13T20:37:43.961Z,32.54
2023-01-13T20:42:48.836Z,32.51
2023-01-13T20:47:52.776Z,32.57
2023-01-13T20:53:13.947Z,32.43
2023-01-13T20:58:18.117Z,32.52
2023-01-13T21:03:20.911Z,32.36
2023-01-13T21:08:23.696Z,32.50
2023-01-13T21:13:45.360Z,32.46
2023-01-13T21:19:10.760Z,32.39
2023-01-13T21:24:14.042Z,32.48
2023-01-13T21:29:18.219Z,32.19
2023-01-13T21:34:21.114Z,32.30
2023-01-13T21:39:23.971Z,32.47
2023-01-13T21:44:45.787Z,32.31
2023-01-13T21:49:51.428Z,32.13
2023-01-13T21:55:12.015Z,32.48
2023-01-13T22:00:18.705Z,32.36
2023-01-13T22:05:22.658Z,32.39
2023-01-13T22:10:28.311Z,32.28
2023-01-13T22:15:33.960Z,32.28
2023-01-13T22:20:36.799Z,32.24
2023-01-13T22:25:40.444Z,32.32
2023-01-13T22:30:45.304Z,32.50
2023-01-13T22:35:55.229Z,32.38
2023-01-13T22:40:58.854Z,32.45
2023-01-13T22:46:06.231Z,32.39
2023-01-13T22:51:10.890Z,32.34
2023-01-13T22:56:17.849Z,32.34
2023-01-13T23:01:22.325Z,32.50
2023-01-13T23:06:26.611Z,32.45
2023-01-13T23:11:30.838Z,32.49
2023-01-13T23:16:36.662Z,32.70
2023-01-13T23:21:39.757Z,32.45
2023-01-13T23:26:42.601Z,32.46
2023-01-13T23:31:46.773Z,32.39
2023-01-13T23:36:49.641Z,32.48
2023-01-13T23:41:52.648Z,32.33
2023-01-13T23:46:56.787Z,32.32
2023-01-13T23:51:59.853Z,32.33
2023-01-13T23:57:02.659Z,32.36
